EJU91FL LEPA-EDDB
Flight info
| Callsign | EJU91FL |
|---|---|
| Flight time | N/A |
| Altitude | 36000 |
| Route | MEROS N853 LUMAS DCT MAXIR DCT LUSOL DCT BODRU DCT OKTET DCT IRMAR DCT KINES DCT VANAS DCT MOBLO DCT UBIMA DCT SOSAL DCT KORED DCT BERSU DCT DITON/N0435F370 DCT LOKTA DCT TEDGO DCT TIKNI T279 TAMEB T278 KLF KLF1R |
| Aircraft | A320/M-SDE3FGHIRWY/LB1 |
Departure
| Time | 2026-05-07 19:45 |
|---|---|
| Airport | Palma de Mallorca Airport (LEPA) |
Arrival
| Time | N/A |
|---|---|
| Airport | Berlin Brandenburg Airport (EDDB) |
| Time | Latitude | Longitude | Altitude | Speed | Heading |
|---|---|---|---|---|---|
| 2026-05-07 19:24 | 39.55194 | 2.73514 | 37 ft | 0 kts | 240° |
| 2026-05-07 19:25 | 39.55195 | 2.73514 | 37 ft | 0 kts | 240° |
| 2026-05-07 19:36 | 39.55196 | 2.73519 | 36 ft | 3 kts | 240° |
| 2026-05-07 19:36 | 39.55211 | 2.73548 | 38 ft | 4 kts | 232° |
| 2026-05-07 19:36 | 39.55229 | 2.73572 | 38 ft | 4 kts | 208° |
| 2026-05-07 19:37 | 39.55250 | 2.73578 | 36 ft | 2 kts | 150° |
| 2026-05-07 19:37 | 39.55252 | 2.73577 | 36 ft | 0 kts | 149° |
| 2026-05-07 19:40 | 39.55206 | 2.73613 | 37 ft | 13 kts | 149° |
| 2026-05-07 19:40 | 39.55167 | 2.73682 | 38 ft | 10 kts | 76° |
| 2026-05-07 19:40 | 39.55155 | 2.73753 | 37 ft | 7 kts | 156° |
| 2026-05-07 19:41 | 39.55093 | 2.73811 | 38 ft | 15 kts | 148° |
| 2026-05-07 19:41 | 39.54985 | 2.73896 | 38 ft | 19 kts | 149° |
| 2026-05-07 19:41 | 39.54870 | 2.73982 | 38 ft | 19 kts | 151° |
| 2026-05-07 19:41 | 39.54803 | 2.73976 | 38 ft | 8 kts | 233° |
| 2026-05-07 19:42 | 39.54754 | 2.73949 | 38 ft | 11 kts | 180° |
| 2026-05-07 19:42 | 39.54675 | 2.73889 | 38 ft | 15 kts | 237° |
| 2026-05-07 19:42 | 39.54621 | 2.73773 | 38 ft | 18 kts | 239° |
| 2026-05-07 19:42 | 39.54539 | 2.73598 | 38 ft | 25 kts | 239° |
| 2026-05-07 19:43 | 39.54448 | 2.73402 | 38 ft | 22 kts | 238° |
| 2026-05-07 19:43 | 39.54401 | 2.73303 | 38 ft | 10 kts | 238° |
| 2026-05-07 19:43 | 39.54363 | 2.73225 | 38 ft | 15 kts | 237° |
| 2026-05-07 19:43 | 39.54303 | 2.73164 | 38 ft | 8 kts | 176° |
| 2026-05-07 19:44 | 39.54269 | 2.73212 | 38 ft | 7 kts | 107° |
| 2026-05-07 19:44 | 39.54267 | 2.73287 | 38 ft | 13 kts | 90° |
| 2026-05-07 19:44 | 39.54267 | 2.73425 | 38 ft | 16 kts | 90° |
| 2026-05-07 19:44 | 39.54333 | 2.73608 | 38 ft | 44 kts | 59° |
| 2026-05-07 19:45 | 39.54617 | 2.74211 | 38 ft | 109 kts | 58° |
| 2026-05-07 19:45 | 39.55106 | 2.75246 | 44 ft | 158 kts | 58° |
| 2026-05-07 19:45 | 39.55713 | 2.76501 | 542 ft | 166 kts | 57° |
| 2026-05-07 19:45 | 39.56307 | 2.77784 | 1273 ft | 165 kts | 59° |
| 2026-05-07 19:46 | 39.56888 | 2.79077 | 1969 ft | 169 kts | 59° |
| 2026-05-07 19:46 | 39.57514 | 2.80468 | 2324 ft | 190 kts | 60° |
| 2026-05-07 19:46 | 39.58215 | 2.82021 | 2777 ft | 206 kts | 60° |
| 2026-05-07 19:46 | 39.58947 | 2.83640 | 3508 ft | 211 kts | 61° |
| 2026-05-07 19:47 | 39.59696 | 2.85291 | 4307 ft | 213 kts | 61° |
| 2026-05-07 19:47 | 39.60455 | 2.86960 | 5128 ft | 215 kts | 60° |
| 2026-05-07 19:47 | 39.61223 | 2.88649 | 5886 ft | 220 kts | 60° |
| 2026-05-07 19:47 | 39.62006 | 2.90371 | 6593 ft | 224 kts | 60° |
| 2026-05-07 19:48 | 39.62814 | 2.92186 | 7037 ft | 244 kts | 61° |
| 2026-05-07 19:48 | 39.63684 | 2.94191 | 7441 ft | 265 kts | 60° |
| 2026-05-07 19:48 | 39.64600 | 2.96318 | 8114 ft | 274 kts | 61° |
| 2026-05-07 19:48 | 39.65525 | 2.98462 | 8901 ft | 278 kts | 62° |
| 2026-05-07 19:49 | 39.66485 | 3.00679 | 9780 ft | 280 kts | 62° |
| 2026-05-07 19:49 | 39.67439 | 3.02882 | 10347 ft | 292 kts | 61° |
| 2026-05-07 19:49 | 39.68488 | 3.05306 | 10587 ft | 315 kts | 62° |
| 2026-05-07 19:49 | 39.69580 | 3.07833 | 11109 ft | 326 kts | 63° |
| 2026-05-07 19:50 | 39.70698 | 3.10420 | 11790 ft | 331 kts | 62° |
| 2026-05-07 19:50 | 39.71828 | 3.13043 | 12547 ft | 334 kts | 62° |
| 2026-05-07 19:50 | 39.72967 | 3.15688 | 13290 ft | 337 kts | 62° |
| 2026-05-07 19:50 | 39.74118 | 3.18355 | 13993 ft | 340 kts | 62° |
| 2026-05-07 19:51 | 39.75276 | 3.21045 | 14619 ft | 343 kts | 61° |
| 2026-05-07 19:51 | 39.76446 | 3.23764 | 15197 ft | 347 kts | 62° |
| 2026-05-07 19:51 | 39.77704 | 3.26454 | 15823 ft | 351 kts | 54° |
| 2026-05-07 19:51 | 39.79285 | 3.28892 | 16417 ft | 355 kts | 50° |
| 2026-05-07 19:52 | 39.80922 | 3.31323 | 17025 ft | 358 kts | 50° |
| 2026-05-07 19:52 | 39.82566 | 3.33776 | 17623 ft | 362 kts | 50° |
| 2026-05-07 19:52 | 39.84226 | 3.36266 | 18216 ft | 366 kts | 51° |
| 2026-05-07 19:52 | 39.85897 | 3.38780 | 18719 ft | 369 kts | 50° |
| 2026-05-07 19:53 | 39.87585 | 3.41322 | 19199 ft | 374 kts | 50° |
| 2026-05-07 19:53 | 39.89294 | 3.43898 | 19678 ft | 378 kts | 51° |
| 2026-05-07 19:53 | 39.91022 | 3.46503 | 20164 ft | 382 kts | 51° |
| 2026-05-07 19:53 | 39.92767 | 3.49132 | 20643 ft | 386 kts | 51° |
| 2026-05-07 19:54 | 39.94532 | 3.51791 | 21111 ft | 390 kts | 50° |
| 2026-05-07 19:54 | 39.96315 | 3.54475 | 21580 ft | 394 kts | 51° |
| 2026-05-07 19:54 | 39.98116 | 3.57193 | 22035 ft | 398 kts | 50° |
| 2026-05-07 19:54 | 39.99940 | 3.59955 | 22354 ft | 406 kts | 50° |
| 2026-05-07 19:55 | 40.01795 | 3.62765 | 22744 ft | 411 kts | 50° |
| 2026-05-07 19:55 | 40.03666 | 3.65602 | 23159 ft | 415 kts | 50° |
| 2026-05-07 19:55 | 40.05561 | 3.68474 | 23564 ft | 420 kts | 50° |
| 2026-05-07 19:55 | 40.07477 | 3.71384 | 23919 ft | 424 kts | 50° |
| 2026-05-07 19:56 | 40.09374 | 3.74274 | 24284 ft | 427 kts | 50° |
| 2026-05-07 19:56 | 40.11317 | 3.77227 | 24657 ft | 430 kts | 50° |
| 2026-05-07 19:56 | 40.13268 | 3.80193 | 25019 ft | 433 kts | 50° |
| 2026-05-07 19:56 | 40.15236 | 3.83191 | 25334 ft | 436 kts | 49° |
| 2026-05-07 19:57 | 40.17220 | 3.86217 | 25683 ft | 440 kts | 50° |
| 2026-05-07 19:57 | 40.19217 | 3.89261 | 26043 ft | 442 kts | 50° |
| 2026-05-07 19:57 | 40.21230 | 3.92330 | 26362 ft | 446 kts | 50° |
| 2026-05-07 19:57 | 40.23273 | 3.95455 | 26717 ft | 449 kts | 50° |
| 2026-05-07 19:58 | 40.25283 | 3.98537 | 27063 ft | 451 kts | 50° |
| 2026-05-07 19:58 | 40.27322 | 4.01669 | 27422 ft | 453 kts | 50° |
| 2026-05-07 19:58 | 40.29377 | 4.04820 | 27771 ft | 456 kts | 50° |
| 2026-05-07 19:58 | 40.31470 | 4.08029 | 28117 ft | 458 kts | 50° |
| 2026-05-07 19:59 | 40.33510 | 4.11165 | 28458 ft | 460 kts | 50° |
| 2026-05-07 19:59 | 40.35594 | 4.14376 | 28794 ft | 463 kts | 51° |
| 2026-05-07 19:59 | 40.37708 | 4.17646 | 29133 ft | 465 kts | 51° |
| 2026-05-07 19:59 | 40.39774 | 4.20840 | 29438 ft | 467 kts | 50° |
| 2026-05-07 20:00 | 40.41884 | 4.24097 | 29734 ft | 470 kts | 51° |
| 2026-05-07 20:00 | 40.44008 | 4.27375 | 30033 ft | 473 kts | 51° |
| 2026-05-07 20:00 | 40.46198 | 4.30614 | 30289 ft | 476 kts | 45° |
| 2026-05-07 20:00 | 40.48721 | 4.33446 | 30532 ft | 478 kts | 35° |
| 2026-05-07 20:01 | 40.51552 | 4.35754 | 30795 ft | 479 kts | 26° |
| 2026-05-07 20:01 | 40.54616 | 4.37476 | 31047 ft | 480 kts | 17° |
| 2026-05-07 20:01 | 40.57840 | 4.38544 | 31300 ft | 478 kts | 8° |
| 2026-05-07 20:01 | 40.61122 | 4.39305 | 31646 ft | 478 kts | 8° |
| 2026-05-07 20:02 | 40.64386 | 4.40073 | 31999 ft | 477 kts | 8° |
| 2026-05-07 20:02 | 40.67650 | 4.40854 | 32350 ft | 476 kts | 8° |
| 2026-05-07 20:02 | 40.70903 | 4.41640 | 32696 ft | 476 kts | 8° |
| 2026-05-07 20:02 | 40.74151 | 4.42425 | 33039 ft | 475 kts | 8° |
| 2026-05-07 20:03 | 40.77407 | 4.43214 | 33380 ft | 474 kts | 8° |
| 2026-05-07 20:03 | 40.80652 | 4.44000 | 33721 ft | 474 kts | 8° |
| 2026-05-07 20:03 | 40.83901 | 4.44787 | 34045 ft | 474 kts | 8° |
| 2026-05-07 20:03 | 40.87141 | 4.45571 | 34265 ft | 475 kts | 8° |
| 2026-05-07 20:04 | 40.90395 | 4.46356 | 34512 ft | 475 kts | 8° |
| 2026-05-07 20:04 | 40.93651 | 4.47140 | 34777 ft | 475 kts | 8° |
| 2026-05-07 20:04 | 40.96898 | 4.47921 | 35034 ft | 474 kts | 8° |
| 2026-05-07 20:04 | 41.00142 | 4.48703 | 35283 ft | 474 kts | 7° |
| 2026-05-07 20:05 | 41.03388 | 4.49489 | 35530 ft | 474 kts | 7° |
| 2026-05-07 20:05 | 41.05531 | 4.50011 | 35700 ft | 474 kts | 7° |
| 2026-05-07 20:05 | 41.08784 | 4.50806 | 35882 ft | 475 kts | 7° |
| 2026-05-07 20:05 | 41.12033 | 4.51600 | 35984 ft | 473 kts | 7° |
| 2026-05-07 20:06 | 41.18471 | 4.53176 | 35998 ft | 469 kts | 7° |
| 2026-05-07 20:06 | 41.24884 | 4.54744 | 35999 ft | 468 kts | 7° |
| 2026-05-07 20:07 | 41.31297 | 4.56307 | 35999 ft | 469 kts | 7° |
| 2026-05-07 20:07 | 41.37717 | 4.57872 | 35989 ft | 471 kts | 7° |
| 2026-05-07 20:08 | 41.44200 | 4.59465 | 36000 ft | 474 kts | 7° |
| 2026-05-07 20:08 | 41.50677 | 4.61070 | 36017 ft | 474 kts | 7° |
| 2026-05-07 20:09 | 41.57169 | 4.62673 | 35994 ft | 475 kts | 7° |
| 2026-05-07 20:10 | 41.66923 | 4.65074 | 35989 ft | 476 kts | 7° |
| 2026-05-07 20:10 | 41.73394 | 4.67204 | 36001 ft | 480 kts | 20° |
| 2026-05-07 20:11 | 41.79250 | 4.71410 | 36001 ft | 482 kts | 30° |
| 2026-05-07 20:11 | 41.84996 | 4.76046 | 36002 ft | 482 kts | 30° |
| 2026-05-07 20:12 | 41.90750 | 4.80675 | 36011 ft | 482 kts | 30° |
| 2026-05-07 20:12 | 41.96498 | 4.85302 | 36013 ft | 482 kts | 30° |
| 2026-05-07 20:13 | 42.02234 | 4.89936 | 36009 ft | 481 kts | 30° |
| 2026-05-07 20:13 | 42.07972 | 4.94588 | 36008 ft | 481 kts | 30° |
| 2026-05-07 20:14 | 42.13715 | 4.99256 | 35992 ft | 482 kts | 30° |
| 2026-05-07 20:14 | 42.19467 | 5.03940 | 35990 ft | 484 kts | 30° |
| 2026-05-07 20:15 | 42.25228 | 5.08635 | 35992 ft | 484 kts | 30° |
| 2026-05-07 20:15 | 42.30995 | 5.13341 | 36007 ft | 485 kts | 30° |
| 2026-05-07 20:16 | 42.36765 | 5.18072 | 36009 ft | 485 kts | 30° |
| 2026-05-07 20:16 | 42.42462 | 5.22760 | 36009 ft | 484 kts | 30° |
| 2026-05-07 20:17 | 42.48288 | 5.27543 | 36011 ft | 484 kts | 30° |
| 2026-05-07 20:17 | 42.54039 | 5.32277 | 36023 ft | 484 kts | 29° |
| 2026-05-07 20:18 | 42.59787 | 5.37034 | 35990 ft | 484 kts | 30° |
| 2026-05-07 20:18 | 42.65534 | 5.41801 | 35986 ft | 485 kts | 30° |
| 2026-05-07 20:19 | 42.71295 | 5.46575 | 35988 ft | 485 kts | 30° |
| 2026-05-07 20:19 | 42.77058 | 5.51367 | 35988 ft | 486 kts | 30° |
| 2026-05-07 20:20 | 42.82781 | 5.56140 | 35992 ft | 486 kts | 30° |
| 2026-05-07 20:20 | 42.88547 | 5.60959 | 36004 ft | 486 kts | 30° |
| 2026-05-07 20:21 | 42.94310 | 5.65787 | 36017 ft | 485 kts | 30° |
| 2026-05-07 20:21 | 43.00048 | 5.70606 | 36017 ft | 484 kts | 30° |
| 2026-05-07 20:22 | 43.05790 | 5.75438 | 35992 ft | 485 kts | 30° |
| 2026-05-07 20:22 | 43.11532 | 5.80280 | 36007 ft | 485 kts | 30° |
| 2026-05-07 20:23 | 43.17275 | 5.85131 | 36012 ft | 484 kts | 29° |
| 2026-05-07 20:23 | 43.23007 | 5.89976 | 36008 ft | 484 kts | 30° |
| 2026-05-07 20:24 | 43.28727 | 5.94823 | 36018 ft | 483 kts | 29° |
| 2026-05-07 20:24 | 43.34433 | 5.99678 | 36015 ft | 482 kts | 29° |
| 2026-05-07 20:25 | 43.40461 | 6.03478 | 36012 ft | 474 kts | 11° |
| 2026-05-07 20:25 | 43.46901 | 6.04800 | 36011 ft | 465 kts | 359° |
| 2026-05-07 20:26 | 43.53366 | 6.05424 | 36027 ft | 465 kts | 359° |
| 2026-05-07 20:26 | 43.59796 | 6.06082 | 36024 ft | 465 kts | 359° |
| 2026-05-07 20:27 | 43.66240 | 6.06743 | 36019 ft | 464 kts | 359° |
| 2026-05-07 20:27 | 43.72690 | 6.07396 | 36034 ft | 464 kts | 359° |
| 2026-05-07 20:28 | 43.79048 | 6.09270 | 36016 ft | 474 kts | 18° |
| 2026-05-07 20:28 | 43.85026 | 6.13219 | 36006 ft | 477 kts | 22° |
| 2026-05-07 20:29 | 43.90981 | 6.17270 | 36032 ft | 477 kts | 22° |
| 2026-05-07 20:29 | 43.96937 | 6.21321 | 36032 ft | 476 kts | 22° |
| 2026-05-07 20:30 | 44.02873 | 6.25396 | 36028 ft | 476 kts | 22° |
| 2026-05-07 20:30 | 44.08811 | 6.29470 | 36042 ft | 475 kts | 22° |
| 2026-05-07 20:31 | 44.14728 | 6.33536 | 36032 ft | 475 kts | 22° |
| 2026-05-07 20:31 | 44.20591 | 6.37579 | 36020 ft | 474 kts | 22° |
| 2026-05-07 20:32 | 44.26509 | 6.41669 | 36018 ft | 474 kts | 21° |
| 2026-05-07 20:32 | 44.32426 | 6.45756 | 36019 ft | 475 kts | 21° |
| 2026-05-07 20:33 | 44.38340 | 6.49863 | 36005 ft | 474 kts | 21° |
| 2026-05-07 20:33 | 44.44221 | 6.53959 | 36037 ft | 474 kts | 21° |
| 2026-05-07 20:34 | 44.50139 | 6.58092 | 36042 ft | 473 kts | 21° |
| 2026-05-07 20:34 | 44.55988 | 6.62175 | 36023 ft | 473 kts | 21° |
| 2026-05-07 20:35 | 44.61900 | 6.66311 | 36021 ft | 472 kts | 21° |
| 2026-05-07 20:35 | 44.67785 | 6.70440 | 36027 ft | 472 kts | 21° |
| 2026-05-07 20:36 | 44.73657 | 6.74565 | 36021 ft | 472 kts | 21° |
| 2026-05-07 20:36 | 44.79688 | 6.77887 | 36032 ft | 462 kts | 6° |
| 2026-05-07 20:37 | 44.85919 | 6.78670 | 36029 ft | 446 kts | 350° |
| 2026-05-07 20:37 | 44.92120 | 6.78240 | 36029 ft | 446 kts | 350° |
| 2026-05-07 20:38 | 44.98335 | 6.77834 | 36021 ft | 445 kts | 350° |
| 2026-05-07 20:38 | 45.04515 | 6.77431 | 36026 ft | 446 kts | 351° |
| 2026-05-07 20:39 | 45.10721 | 6.77017 | 36032 ft | 446 kts | 351° |
| 2026-05-07 20:39 | 45.16907 | 6.76605 | 36019 ft | 446 kts | 351° |
| 2026-05-07 20:40 | 45.23101 | 6.76196 | 36036 ft | 445 kts | 352° |
| 2026-05-07 20:40 | 45.29293 | 6.75785 | 36027 ft | 445 kts | 352° |
| 2026-05-07 20:41 | 45.35437 | 6.75374 | 36020 ft | 445 kts | 352° |
| 2026-05-07 20:41 | 45.41646 | 6.74954 | 36035 ft | 446 kts | 352° |
| 2026-05-07 20:42 | 45.47334 | 6.74571 | 36031 ft | 445 kts | 352° |
| 2026-05-07 20:42 | 45.53526 | 6.74159 | 36025 ft | 445 kts | 352° |
| 2026-05-07 20:43 | 45.59701 | 6.73738 | 36035 ft | 445 kts | 352° |
| 2026-05-07 20:43 | 45.65891 | 6.73307 | 36017 ft | 444 kts | 352° |
| 2026-05-07 20:44 | 45.72053 | 6.72880 | 36016 ft | 444 kts | 352° |
| 2026-05-07 20:44 | 45.78230 | 6.72456 | 36032 ft | 444 kts | 352° |
| 2026-05-07 20:45 | 45.84408 | 6.72026 | 36232 ft | 445 kts | 352° |
| 2026-05-07 20:45 | 45.87510 | 6.71811 | 36432 ft | 445 kts | 352° |
| 2026-05-07 20:45 | 45.90604 | 6.71601 | 36683 ft | 446 kts | 353° |
| 2026-05-07 20:45 | 45.93697 | 6.71394 | 36886 ft | 446 kts | 353° |
| 2026-05-07 20:46 | 45.96802 | 6.71186 | 37005 ft | 447 kts | 353° |
| 2026-05-07 20:46 | 46.03005 | 6.70777 | 37016 ft | 446 kts | 352° |
| 2026-05-07 20:47 | 46.09191 | 6.70361 | 37016 ft | 445 kts | 353° |
| 2026-05-07 20:47 | 46.15358 | 6.71254 | 37017 ft | 454 kts | 12° |
| 2026-05-07 20:48 | 46.21470 | 6.73845 | 37015 ft | 455 kts | 13° |
| 2026-05-07 20:48 | 46.27544 | 6.76421 | 37020 ft | 455 kts | 12° |
| 2026-05-07 20:49 | 46.33588 | 6.78967 | 37013 ft | 455 kts | 12° |
| 2026-05-07 20:49 | 46.39669 | 6.81542 | 37032 ft | 455 kts | 12° |
| 2026-05-07 20:50 | 46.45743 | 6.84136 | 37032 ft | 455 kts | 13° |
| 2026-05-07 20:50 | 46.51795 | 6.86867 | 37034 ft | 458 kts | 19° |
| 2026-05-07 20:51 | 46.57251 | 6.91734 | 37043 ft | 466 kts | 39° |
| 2026-05-07 20:51 | 46.61559 | 6.98797 | 37045 ft | 469 kts | 49° |
| 2026-05-07 20:52 | 46.65663 | 7.06185 | 37044 ft | 469 kts | 49° |
| 2026-05-07 20:52 | 46.69769 | 7.13576 | 37042 ft | 470 kts | 49° |
| 2026-05-07 20:53 | 46.73180 | 7.19751 | 37041 ft | 470 kts | 49° |